createdAt,value
2018-08-30T00:02:22.920Z,17.90
2018-08-30T00:04:52.698Z,17.90
2018-08-30T00:07:21.701Z,17.90
2018-08-30T00:09:51.077Z,17.90
2018-08-30T00:12:20.137Z,17.80
2018-08-30T00:14:49.168Z,17.80
2018-08-30T00:17:18.435Z,17.90
2018-08-30T00:19:47.439Z,17.90
2018-08-30T00:22:16.484Z,18.00
2018-08-30T00:24:45.546Z,18.00
2018-08-30T00:27:14.597Z,18.00
2018-08-30T00:29:43.665Z,18.00
2018-08-30T00:32:12.736Z,18.00
2018-08-30T00:34:41.988Z,17.90
2018-08-30T00:37:11.040Z,17.90
2018-08-30T00:39:40.157Z,17.90
2018-08-30T00:42:09.193Z,17.90
2018-08-30T00:44:38.224Z,18.00
2018-08-30T00:47:07.336Z,18.00
2018-08-30T00:49:36.409Z,18.00
2018-08-30T00:52:05.785Z,18.00
2018-08-30T00:54:34.807Z,18.00
2018-08-30T00:57:04.224Z,17.90
2018-08-30T00:59:33.265Z,17.90
2018-08-30T01:02:02.375Z,17.90
2018-08-30T01:04:31.410Z,17.90
2018-08-30T01:07:00.436Z,17.90
2018-08-30T01:09:29.462Z,17.90
2018-08-30T01:11:58.539Z,17.90
2018-08-30T01:14:27.600Z,17.90
2018-08-30T01:16:56.837Z,17.90
2018-08-30T01:19:26.256Z,17.80
2018-08-30T01:21:55.329Z,17.80
2018-08-30T01:24:24.760Z,17.80
2018-08-30T01:26:54.186Z,17.80
2018-08-30T01:29:23.267Z,17.80
2018-08-30T01:31:52.362Z,17.80
2018-08-30T01:34:21.401Z,17.80
2018-08-30T01:36:50.805Z,17.80
2018-08-30T01:39:19.872Z,17.80
2018-08-30T01:41:48.938Z,17.80
2018-08-30T01:44:18.036Z,17.80
2018-08-30T01:46:47.014Z,17.80
2018-08-30T01:49:16.011Z,17.80
2018-08-30T01:51:45.105Z,17.80
2018-08-30T01:54:14.092Z,17.80
2018-08-30T01:56:43.188Z,17.80
2018-08-30T01:59:12.226Z,17.80
2018-08-30T02:01:41.333Z,17.70
2018-08-30T02:04:10.340Z,17.80
2018-08-30T02:06:39.651Z,17.80
2018-08-30T02:09:08.743Z,17.80
2018-08-30T02:11:37.754Z,17.80
2018-08-30T02:14:06.770Z,17.80
2018-08-30T02:16:35.786Z,17.80
2018-08-30T02:19:04.851Z,17.70
2018-08-30T02:21:33.845Z,17.70
2018-08-30T02:24:02.925Z,17.70
2018-08-30T02:26:32.006Z,17.70
2018-08-30T02:29:01.070Z,17.60
2018-08-30T02:31:30.379Z,17.60
2018-08-30T02:33:59.458Z,17.60
2018-08-30T02:36:29.700Z,17.60
2018-08-30T02:38:59.126Z,17.60
2018-08-30T02:41:29.000Z,17.60
2018-08-30T02:43:58.041Z,17.60
2018-08-30T02:46:27.067Z,17.70
2018-08-30T02:48:56.339Z,17.70
2018-08-30T02:51:25.524Z,17.70
2018-08-30T02:53:54.584Z,17.70
2018-08-30T02:56:23.841Z,17.70
2018-08-30T02:58:52.879Z,17.60
2018-08-30T03:01:21.870Z,17.60
2018-08-30T03:03:50.944Z,17.70
2018-08-30T03:06:19.934Z,17.70
2018-08-30T03:08:48.957Z,17.70
2018-08-30T03:11:18.229Z,17.70
2018-08-30T03:13:47.316Z,17.60
2018-08-30T03:16:16.381Z,17.60
2018-08-30T03:18:45.410Z,17.50
2018-08-30T03:21:14.439Z,17.50
2018-08-30T03:23:43.478Z,17.50
2018-08-30T03:26:12.479Z,17.50
2018-08-30T03:28:41.542Z,17.40
2018-08-30T03:31:10.581Z,17.40
2018-08-30T03:33:39.640Z,17.40
2018-08-30T03:36:08.661Z,17.40
2018-08-30T03:38:37.876Z,17.50
2018-08-30T03:41:06.928Z,17.50
2018-08-30T03:43:35.966Z,17.50
2018-08-30T03:46:04.986Z,17.40
2018-08-30T03:48:34.047Z,17.40
2018-08-30T03:51:03.126Z,17.30
2018-08-30T03:53:32.393Z,17.30
2018-08-30T03:56:02.696Z,17.40
2018-08-30T03:58:31.712Z,17.40
2018-08-30T04:01:01.097Z,17.40
2018-08-30T04:03:30.795Z,17.40
2018-08-30T04:05:59.798Z,17.30
2018-08-30T04:08:28.879Z,17.30
2018-08-30T04:10:57.892Z,17.30
2018-08-30T04:13:26.896Z,17.30
2018-08-30T04:15:55.932Z,17.30
2018-08-30T04:18:25.033Z,17.30
2018-08-30T04:20:54.053Z,17.30
2018-08-30T04:23:23.118Z,17.30
2018-08-30T04:25:52.163Z,17.30
2018-08-30T04:28:21.244Z,17.40
2018-08-30T04:30:50.986Z,17.40
2018-08-30T04:33:20.044Z,17.40
2018-08-30T04:35:49.093Z,17.30
2018-08-30T04:38:19.014Z,17.40
2018-08-30T04:40:48.028Z,17.20
2018-08-30T04:43:18.567Z,17.30
2018-08-30T04:45:47.598Z,17.20
2018-08-30T04:48:16.648Z,17.20
2018-08-30T04:50:45.712Z,17.10
2018-08-30T04:53:14.971Z,17.20
2018-08-30T04:55:44.052Z,17.20
2018-08-30T04:58:13.071Z,17.20
2018-08-30T05:00:45.444Z,17.10
2018-08-30T05:03:14.480Z,17.20
2018-08-30T05:05:43.781Z,17.20
2018-08-30T05:08:13.716Z,17.30
2018-08-30T05:10:43.231Z,17.40
2018-08-30T05:13:12.264Z,17.50
2018-08-30T05:15:41.323Z,17.50
2018-08-30T05:18:10.412Z,17.50
2018-08-30T05:20:39.444Z,17.60
2018-08-30T05:23:08.673Z,17.60
2018-08-30T05:25:37.941Z,17.70
2018-08-30T05:28:07.252Z,17.50
2018-08-30T05:30:36.352Z,17.50
2018-08-30T05:33:06.818Z,17.50
2018-08-30T05:35:35.850Z,17.50
2018-08-30T05:38:05.238Z,17.60
2018-08-30T05:40:34.257Z,17.60
2018-08-30T05:43:03.369Z,17.70
2018-08-30T05:45:32.360Z,17.70
2018-08-30T05:48:01.450Z,17.70
2018-08-30T05:50:30.778Z,17.70
2018-08-30T05:52:59.918Z,17.70
2018-08-30T05:55:29.280Z,17.70
2018-08-30T05:57:58.593Z,17.60
2018-08-30T06:00:27.641Z,17.50
2018-08-30T06:02:56.770Z,17.50
2018-08-30T06:05:25.752Z,17.50
2018-08-30T06:07:54.800Z,17.50
2018-08-30T06:10:24.527Z,17.40
2018-08-30T06:12:53.623Z,17.40
2018-08-30T06:15:22.848Z,17.50
2018-08-30T06:17:52.069Z,17.50
2018-08-30T06:20:21.110Z,17.60
2018-08-30T06:22:50.466Z,17.50
2018-08-30T06:25:19.496Z,17.40
2018-08-30T06:27:48.716Z,17.50
2018-08-30T06:30:17.937Z,17.70
2018-08-30T06:32:46.987Z,17.90
2018-08-30T06:35:16.290Z,18.00
2018-08-30T06:37:45.476Z,17.90
2018-08-30T06:40:14.499Z,18.00
2018-08-30T06:42:43.557Z,17.90
2018-08-30T06:45:12.653Z,18.00
2018-08-30T06:47:41.749Z,18.00
2018-08-30T06:50:10.827Z,17.90
2018-08-30T06:52:39.856Z,17.80
2018-08-30T06:55:10.190Z,18.00
2018-08-30T06:57:39.460Z,18.10
2018-08-30T07:00:08.830Z,18.10
2018-08-30T07:02:37.909Z,18.00
2018-08-30T07:05:07.348Z,18.00
2018-08-30T07:07:36.389Z,18.20
2018-08-30T07:10:06.544Z,18.40
2018-08-30T07:12:36.810Z,18.70
2018-08-30T07:15:06.356Z,18.80
2018-08-30T07:17:35.562Z,18.80
2018-08-30T07:20:04.962Z,18.60
2018-08-30T07:22:34.007Z,18.70
2018-08-30T07:25:03.393Z,18.80
2018-08-30T07:27:33.083Z,18.90
2018-08-30T07:30:02.504Z,18.80
2018-08-30T07:32:38.802Z,18.80
2018-08-30T07:35:08.744Z,18.50
2018-08-30T07:37:39.619Z,18.50
2018-08-30T07:40:08.976Z,18.40
2018-08-30T07:42:38.007Z,18.40
2018-08-30T07:45:07.459Z,18.40
2018-08-30T07:47:37.265Z,18.40
2018-08-30T07:50:06.595Z,18.50
2018-08-30T07:52:35.609Z,18.60
2018-08-30T07:55:05.649Z,18.80
2018-08-30T07:57:34.788Z,19.00
2018-08-30T08:00:05.066Z,19.20
2018-08-30T08:02:34.228Z,19.40
2018-08-30T08:05:03.333Z,19.30
2018-08-30T08:07:32.701Z,19.30
2018-08-30T08:10:01.702Z,19.50
2018-08-30T08:12:30.753Z,19.60
2018-08-30T08:14:59.747Z,19.60
2018-08-30T08:17:28.814Z,19.40
2018-08-30T08:20:04.571Z,19.40
2018-08-30T08:22:33.644Z,19.20
2018-08-30T08:25:02.674Z,18.90
2018-08-30T08:27:31.766Z,18.70
2018-08-30T08:30:00.850Z,19.20
2018-08-30T08:32:29.851Z,19.70
2018-08-30T08:34:58.896Z,19.90
2018-08-30T08:37:27.976Z,19.80
2018-08-30T08:39:57.094Z,19.80
2018-08-30T08:42:26.153Z,20.10
2018-08-30T08:44:55.310Z,20.40
2018-08-30T08:47:24.345Z,20.70
2018-08-30T08:49:53.416Z,20.90
2018-08-30T08:52:22.590Z,20.80
2018-08-30T08:54:51.676Z,20.90
2018-08-30T08:57:20.811Z,21.00
2018-08-30T08:59:50.214Z,20.90
2018-08-30T09:02:19.345Z,20.90
2018-08-30T09:04:48.848Z,21.00
2018-08-30T09:07:18.285Z,20.90
2018-08-30T09:09:47.844Z,20.70
2018-08-30T09:12:18.122Z,20.60
2018-08-30T09:14:47.176Z,20.50
2018-08-30T09:17:16.256Z,20.80
2018-08-30T09:19:45.361Z,21.20
2018-08-30T09:22:14.702Z,21.20
2018-08-30T09:24:43.917Z,21.40
2018-08-30T09:27:13.630Z,21.80
2018-08-30T09:29:43.518Z,22.00
2018-08-30T09:32:12.895Z,22.00
2018-08-30T09:34:41.973Z,21.80
2018-08-30T09:37:13.184Z,22.00
2018-08-30T09:39:42.808Z,22.30
2018-08-30T09:42:11.984Z,22.20
2018-08-30T09:44:41.129Z,22.00
2018-08-30T09:47:10.299Z,21.90
2018-08-30T09:49:40.277Z,21.90
2018-08-30T09:52:09.704Z,22.10
2018-08-30T09:54:38.822Z,22.50
2018-08-30T09:57:08.053Z,23.10
2018-08-30T09:59:37.077Z,23.70
2018-08-30T10:03:10.403Z,23.90
2018-08-30T10:05:39.654Z,23.50
2018-08-30T10:08:08.715Z,23.50
2018-08-30T10:10:37.777Z,23.00
2018-08-30T10:13:07.180Z,22.60
2018-08-30T10:15:36.247Z,22.90
2018-08-30T10:18:06.378Z,23.10
2018-08-30T10:20:36.812Z,22.80
2018-08-30T10:23:06.077Z,23.00
2018-08-30T10:25:35.172Z,22.90
2018-08-30T10:28:04.698Z,22.40
2018-08-30T10:30:33.821Z,22.50
2018-08-30T10:33:03.234Z,22.30
2018-08-30T10:35:32.254Z,22.00
2018-08-30T10:38:01.277Z,21.90
2018-08-30T10:40:30.319Z,21.70
2018-08-30T10:43:02.544Z,22.00
2018-08-30T10:45:31.762Z,22.00
2018-08-30T10:48:00.805Z,22.00
2018-08-30T10:50:29.877Z,22.30
2018-08-30T10:52:58.924Z,22.10
2018-08-30T10:55:28.039Z,22.40
2018-08-30T10:57:57.190Z,22.20
2018-08-30T11:00:26.315Z,22.20
2018-08-30T11:02:55.505Z,22.60
2018-08-30T11:05:24.863Z,23.00
2018-08-30T11:07:53.899Z,22.60
2018-08-30T11:10:23.215Z,22.00
2018-08-30T11:12:52.611Z,22.00
2018-08-30T11:15:22.733Z,22.00
2018-08-30T11:17:52.229Z,21.90
2018-08-30T11:20:21.266Z,21.90
2018-08-30T11:22:50.384Z,22.00
2018-08-30T11:25:19.403Z,21.70
2018-08-30T11:27:48.456Z,22.00
2018-08-30T11:30:17.516Z,22.00
2018-08-30T11:32:46.897Z,22.00
2018-08-30T11:35:15.914Z,22.40
2018-08-30T11:37:45.011Z,22.50
2018-08-30T11:40:14.193Z,22.70
2018-08-30T11:42:43.225Z,22.70
2018-08-30T11:45:12.286Z,23.00
2018-08-30T11:47:41.315Z,23.00
2018-08-30T11:50:10.690Z,22.90
2018-08-30T11:52:39.844Z,22.70
2018-08-30T11:55:09.017Z,22.80
2018-08-30T11:57:38.318Z,22.40
2018-08-30T12:00:07.392Z,22.60
2018-08-30T12:02:36.654Z,22.50
2018-08-30T12:05:06.436Z,22.60
2018-08-30T12:07:35.747Z,23.10
2018-08-30T12:10:05.504Z,24.00
2018-08-30T12:12:34.733Z,24.30
2018-08-30T12:15:03.775Z,24.30
2018-08-30T12:17:33.000Z,24.90
2018-08-30T12:20:02.239Z,25.10
2018-08-30T12:22:31.520Z,25.00
2018-08-30T12:25:00.540Z,25.10
2018-08-30T12:27:29.822Z,25.40
2018-08-30T12:29:58.893Z,25.40
2018-08-30T12:32:28.196Z,24.50
2018-08-30T12:34:57.443Z,24.50
2018-08-30T12:37:26.830Z,24.30
2018-08-30T12:39:56.091Z,24.10
2018-08-30T12:42:25.280Z,23.30
2018-08-30T12:44:54.515Z,23.00
2018-08-30T12:47:23.727Z,22.90
2018-08-30T12:49:52.978Z,22.80
2018-08-30T12:52:22.265Z,22.90
2018-08-30T12:54:51.526Z,22.70
2018-08-30T12:57:20.701Z,22.70
2018-08-30T12:59:50.046Z,22.40
2018-08-30T13:02:19.458Z,22.30
2018-08-30T13:04:48.726Z,22.30
2018-08-30T13:07:17.931Z,22.50
2018-08-30T13:09:47.242Z,22.40
2018-08-30T13:12:16.683Z,22.10
2018-08-30T13:14:45.977Z,22.20
2018-08-30T13:17:15.111Z,22.50
2018-08-30T13:19:44.382Z,23.00
2018-08-30T13:22:16.049Z,24.90
2018-08-30T13:24:45.354Z,26.40
2018-08-30T13:27:15.148Z,26.90
2018-08-30T13:29:44.499Z,26.90
2018-08-30T13:32:14.307Z,28.10
2018-08-30T13:34:44.147Z,29.70
2018-08-30T13:37:14.443Z,30.50
2018-08-30T13:39:44.486Z,30.50
2018-08-30T13:42:14.337Z,28.60
2018-08-30T13:44:44.221Z,27.30
2018-08-30T13:47:13.802Z,26.80
2018-08-30T13:49:43.541Z,26.80
2018-08-30T13:52:13.582Z,28.40
2018-08-30T13:54:46.545Z,28.40
2018-08-30T13:57:20.436Z,27.70
2018-08-30T13:59:51.389Z,28.40
2018-08-30T14:02:21.363Z,28.10
2018-08-30T14:04:51.440Z,27.60
2018-08-30T14:07:21.257Z,27.50
2018-08-30T14:09:51.075Z,27.20
2018-08-30T14:12:21.043Z,27.20
2018-08-30T14:14:50.828Z,27.00
2018-08-30T14:17:20.027Z,26.30
2018-08-30T14:19:49.823Z,25.70
2018-08-30T14:22:19.308Z,25.50
2018-08-30T14:24:48.369Z,25.30
2018-08-30T14:27:17.386Z,24.90
2018-08-30T14:29:46.409Z,25.00
2018-08-30T14:32:15.650Z,25.70
2018-08-30T14:34:45.079Z,25.70
2018-08-30T14:37:14.078Z,25.80
2018-08-30T14:39:43.108Z,27.00
2018-08-30T14:42:12.800Z,27.90
2018-08-30T14:44:42.401Z,27.80
2018-08-30T14:47:11.447Z,27.00
2018-08-30T14:49:41.006Z,26.30
2018-08-30T14:52:10.839Z,26.80
2018-08-30T14:54:40.713Z,29.30
2018-08-30T14:57:10.379Z,30.30
2018-08-30T14:59:39.992Z,31.10
2018-08-30T15:02:09.851Z,31.20
2018-08-30T15:04:39.824Z,29.80
2018-08-30T15:07:09.669Z,27.80
2018-08-30T15:09:39.470Z,26.50
2018-08-30T15:12:08.730Z,25.70
2018-08-30T15:14:37.893Z,24.70
2018-08-30T15:17:07.126Z,24.50
2018-08-30T15:19:36.399Z,24.40
2018-08-30T15:22:05.548Z,24.20
2018-08-30T15:24:34.768Z,24.00
2018-08-30T15:27:04.062Z,24.20
2018-08-30T15:29:33.147Z,25.10
2018-08-30T15:32:02.384Z,26.70
2018-08-30T15:34:32.069Z,28.00
2018-08-30T15:37:01.721Z,28.10
2018-08-30T15:39:31.423Z,29.20
2018-08-30T15:42:01.033Z,30.00
2018-08-30T15:44:31.357Z,29.70
2018-08-30T15:47:01.309Z,29.70
2018-08-30T15:49:31.374Z,29.20
2018-08-30T15:52:00.956Z,26.60
2018-08-30T15:54:29.982Z,25.10
2018-08-30T15:57:00.212Z,24.70
2018-08-30T15:59:29.624Z,24.60
2018-08-30T16:01:58.961Z,25.10
2018-08-30T16:04:27.990Z,24.80
2018-08-30T16:06:57.237Z,25.30
2018-08-30T16:09:26.275Z,25.30
2018-08-30T16:11:55.272Z,25.70
2018-08-30T16:14:24.287Z,25.90
2018-08-30T16:16:53.289Z,25.90
2018-08-30T16:19:22.558Z,25.90
2018-08-30T16:21:51.584Z,25.50
2018-08-30T16:24:20.642Z,26.10
2018-08-30T16:26:49.820Z,25.80
2018-08-30T16:29:18.908Z,25.90
2018-08-30T16:31:48.097Z,26.00
2018-08-30T16:34:17.361Z,26.40
2018-08-30T16:36:47.297Z,26.70
2018-08-30T16:39:16.322Z,26.20
2018-08-30T16:41:45.558Z,26.40
2018-08-30T16:44:14.615Z,26.80
2018-08-30T16:46:44.551Z,27.00
2018-08-30T16:49:14.136Z,27.50
2018-08-30T16:51:43.178Z,26.30
2018-08-30T16:54:12.748Z,26.30
2018-08-30T16:56:41.781Z,27.00
2018-08-30T16:59:10.990Z,26.80
2018-08-30T17:01:40.255Z,26.30
2018-08-30T17:04:09.268Z,25.40
2018-08-30T17:06:38.501Z,24.30
2018-08-30T17:09:08.411Z,23.90
2018-08-30T17:11:37.845Z,23.30
2018-08-30T17:14:07.129Z,23.00
2018-08-30T17:16:36.154Z,22.90
2018-08-30T17:19:14.250Z,22.80
2018-08-30T17:21:49.762Z,22.70
2018-08-30T17:24:19.013Z,22.50
2018-08-30T17:26:48.291Z,22.40
2018-08-30T17:29:17.723Z,22.10
2018-08-30T17:31:46.758Z,21.90
2018-08-30T17:34:15.769Z,21.60
2018-08-30T17:36:44.820Z,21.60
2018-08-30T17:39:13.824Z,21.30
2018-08-30T17:41:42.901Z,21.20
2018-08-30T17:44:11.955Z,21.00
2018-08-30T17:46:40.945Z,21.00
2018-08-30T17:49:10.168Z,20.90
2018-08-30T17:51:39.447Z,20.80
2018-08-30T17:54:08.453Z,20.70
2018-08-30T17:56:37.473Z,20.60
2018-08-30T17:59:07.047Z,20.60
2018-08-30T18:01:36.135Z,20.60
2018-08-30T18:04:05.190Z,20.50
2018-08-30T18:06:34.393Z,20.40
2018-08-30T18:09:03.726Z,20.20
2018-08-30T18:11:32.720Z,20.20
2018-08-30T18:14:01.822Z,20.00
2018-08-30T18:16:31.123Z,19.90
2018-08-30T18:19:00.747Z,19.70
2018-08-30T18:21:29.767Z,19.60
2018-08-30T18:23:59.103Z,19.50
2018-08-30T18:26:28.337Z,19.40
2018-08-30T18:28:57.432Z,19.20
2018-08-30T18:31:26.512Z,19.10
2018-08-30T18:33:56.023Z,19.10
2018-08-30T18:36:25.069Z,19.00
2018-08-30T18:38:54.113Z,18.90
2018-08-30T18:41:23.204Z,18.90
2018-08-30T18:43:52.251Z,18.80
2018-08-30T18:46:21.316Z,18.80
2018-08-30T18:48:50.358Z,18.70
2018-08-30T18:51:19.428Z,18.70
2018-08-30T18:53:48.439Z,18.60
2018-08-30T18:56:17.437Z,18.60
2018-08-30T18:58:46.551Z,18.50
2018-08-30T19:01:15.617Z,18.40
2018-08-30T19:03:46.338Z,18.40
2018-08-30T19:06:15.355Z,18.30
2018-08-30T19:08:44.400Z,18.20
2018-08-30T19:11:14.452Z,18.10
2018-08-30T19:13:43.624Z,18.00
2018-08-30T19:16:17.945Z,18.00
2018-08-30T19:18:52.286Z,18.00
2018-08-30T19:21:21.350Z,17.90
2018-08-30T19:23:50.374Z,17.80
2018-08-30T19:26:19.840Z,17.80
2018-08-30T19:28:49.228Z,17.80
2018-08-30T19:31:18.648Z,17.60
2018-08-30T19:33:47.699Z,17.50
2018-08-30T19:36:22.041Z,17.40
2018-08-30T19:38:51.125Z,17.50
2018-08-30T19:41:22.179Z,17.50
2018-08-30T19:43:52.332Z,17.50
2018-08-30T19:46:22.298Z,17.50
2018-08-30T19:48:51.307Z,17.40
2018-08-30T19:51:20.468Z,17.30
2018-08-30T19:53:49.509Z,17.20
2018-08-30T19:56:18.722Z,17.20
2018-08-30T19:58:48.254Z,17.10
2018-08-30T20:01:17.337Z,17.00
2018-08-30T20:03:46.382Z,17.00
2018-08-30T20:06:15.501Z,17.00
2018-08-30T20:08:44.508Z,16.90
2018-08-30T20:11:13.543Z,16.80
2018-08-30T20:13:42.573Z,16.90
2018-08-30T20:16:11.844Z,16.80
2018-08-30T20:18:40.877Z,16.70
2018-08-30T20:21:09.966Z,16.60
2018-08-30T20:23:39.012Z,16.60
2018-08-30T20:26:08.041Z,16.50
2018-08-30T20:28:37.048Z,16.40
2018-08-30T20:31:06.090Z,16.40
2018-08-30T20:33:35.126Z,16.40
2018-08-30T20:36:04.195Z,16.30
2018-08-30T20:38:33.406Z,16.30
2018-08-30T20:41:02.458Z,16.30
2018-08-30T20:43:31.891Z,16.20
2018-08-30T20:46:01.014Z,16.30
2018-08-30T20:48:30.059Z,16.30
2018-08-30T20:50:59.144Z,16.30
2018-08-30T20:53:28.263Z,16.30
2018-08-30T20:55:57.501Z,16.30
2018-08-30T20:58:26.603Z,16.20
2018-08-30T21:00:55.886Z,16.10
2018-08-30T21:03:24.994Z,16.10
2018-08-30T21:05:54.025Z,16.10
2018-08-30T21:08:23.052Z,16.10
2018-08-30T21:10:52.098Z,16.20
2018-08-30T21:13:21.245Z,16.10
2018-08-30T21:15:50.262Z,16.20
2018-08-30T21:18:19.262Z,16.20
2018-08-30T21:20:48.413Z,16.10
2018-08-30T21:23:17.654Z,16.00
2018-08-30T21:25:46.754Z,16.00
2018-08-30T21:28:15.798Z,16.00
2018-08-30T21:30:44.876Z,15.90
2018-08-30T21:33:13.918Z,15.90
2018-08-30T21:35:42.986Z,15.80
2018-08-30T21:38:12.099Z,15.80
2018-08-30T21:40:41.162Z,15.80
2018-08-30T21:43:10.665Z,15.90
2018-08-30T21:45:39.678Z,16.00
2018-08-30T21:48:08.819Z,15.90
2018-08-30T21:50:38.005Z,15.90
2018-08-30T21:53:07.491Z,15.90
2018-08-30T21:55:36.603Z,15.80
2018-08-30T21:58:05.664Z,15.70
2018-08-30T22:00:35.068Z,15.60
2018-08-30T22:03:04.217Z,15.60
2018-08-30T22:05:34.167Z,15.50
2018-08-30T22:08:03.234Z,15.60
2018-08-30T22:10:32.260Z,15.60
2018-08-30T22:13:01.328Z,15.50
2018-08-30T22:15:30.363Z,15.40
2018-08-30T22:17:59.764Z,15.30
2018-08-30T22:20:28.829Z,15.20
2018-08-30T22:22:57.873Z,15.20
2018-08-30T22:25:26.918Z,15.20
2018-08-30T22:27:55.915Z,15.20
2018-08-30T22:30:25.056Z,15.20
2018-08-30T22:32:54.041Z,15.20
2018-08-30T22:35:23.101Z,15.20
2018-08-30T22:37:52.108Z,15.20
2018-08-30T22:40:21.151Z,15.10
2018-08-30T22:42:50.725Z,15.10
2018-08-30T22:45:19.752Z,15.10
2018-08-30T22:47:48.975Z,15.10
2018-08-30T22:50:18.026Z,15.00
2018-08-30T22:52:47.077Z,15.10
2018-08-30T22:55:16.116Z,15.10
2018-08-30T22:57:45.432Z,15.00
2018-08-30T23:00:14.926Z,14.90
2018-08-30T23:02:43.987Z,14.90
2018-08-30T23:05:13.279Z,14.90
2018-08-30T23:07:42.285Z,15.00
2018-08-30T23:10:11.298Z,14.90
2018-08-30T23:12:40.520Z,14.90
2018-08-30T23:15:09.543Z,14.90
2018-08-30T23:17:38.584Z,14.80
2018-08-30T23:20:07.988Z,14.70
2018-08-30T23:22:36.995Z,14.80
2018-08-30T23:25:06.308Z,14.90
2018-08-30T23:27:35.319Z,14.90
2018-08-30T23:30:04.588Z,15.00
2018-08-30T23:32:33.614Z,15.00
2018-08-30T23:35:02.726Z,15.00
2018-08-30T23:37:31.931Z,14.70
2018-08-30T23:40:00.944Z,14.50
2018-08-30T23:42:29.967Z,14.50
2018-08-30T23:44:59.003Z,14.60
2018-08-30T23:47:28.066Z,14.60
2018-08-30T23:49:57.108Z,14.60
2018-08-30T23:52:26.397Z,14.40
2018-08-30T23:54:55.468Z,14.50
2018-08-30T23:57:24.484Z,14.40
